Time,TemperatureF,DewpointF,PressureIn,WindDirection,WindDirectionDegrees,WindSpeedMPH,WindSpeedGustMPH,Humidity,HourlyPrecipIn,Conditions,Clouds,dailyrainin,SoftwareType,DateUTC
2013-02-11 00:13:00,74.0,70.0,30.04,ENE,76,2.0,4.0,88,0.00,,,0.13,weatherlink.com 1.10,2013-02-11 04:13:00,
2013-02-11 00:28:00,74.6,70.0,30.03,East,89,4.0,10.0,84,0.00,,,0.13,weatherlink.com 1.10,2013-02-11 04:28:00,
2013-02-11 00:43:00,74.3,69.0,30.03,NE,56,2.0,5.0,84,0.00,,,0.13,weatherlink.com 1.10,2013-02-11 04:43:00,
2013-02-11 00:58:00,74.6,70.0,30.02,NE,56,3.0,6.0,85,0.00,,,0.13,weatherlink.com 1.10,2013-02-11 04:58:00,
2013-02-11 01:13:00,74.0,70.0,30.02,NE,52,3.0,13.0,86,0.00,,,0.13,weatherlink.com 1.10,2013-02-11 05:13:00,
2013-02-11 01:28:00,73.4,69.0,30.02,NE,53,3.0,9.0,87,0.02,,,0.15,weatherlink.com 1.10,2013-02-11 05:28:00,
2013-02-11 01:42:00,73.7,70.0,30.02,ENE,68,2.0,5.0,89,0.02,,,0.15,weatherlink.com 1.10,2013-02-11 05:42:00,
2013-02-11 01:57:00,74.2,70.0,30.01,ENE,58,7.0,8.0,87,0.02,,,0.00,weatherlink.com 1.10,2013-02-11 05:57:00,
2013-02-11 02:13:00,74.5,70.0,30.01,East,97,2.0,7.0,85,0.02,,,0.00,weatherlink.com 1.10,2013-02-11 06:13:00,
2013-02-11 02:28:00,74.8,70.0,30.00,NE,46,2.0,7.0,84,0.00,,,0.00,weatherlink.com 1.10,2013-02-11 06:28:00,
2013-02-11 02:44:00,74.6,70.0,30.00,NNE,30,2.0,7.0,84,0.00,,,0.00,weatherlink.com 1.10,2013-02-11 06:44:00,
2013-02-11 02:59:00,74.5,69.0,29.99,NE,37,4.0,9.0,84,0.00,,,0.00,weatherlink.com 1.10,2013-02-11 06:59:00,
2013-02-11 03:14:00,74.6,69.0,29.99,ENE,65,4.0,7.0,83,0.00,,,0.00,weatherlink.com 1.10,2013-02-11 07:14:00,
2013-02-11 03:29:00,74.7,69.0,29.99,ENE,63,4.0,5.0,82,0.00,,,0.00,weatherlink.com 1.10,2013-02-11 07:29:00,
2013-02-11 03:44:00,74.6,69.0,29.99,ENE,72,1.0,5.0,83,0.00,,,0.00,weatherlink.com 1.10,2013-02-11 07:44:00,
2013-02-11 03:59:00,74.6,70.0,29.99,ENE,68,2.0,4.0,84,0.00,,,0.00,weatherlink.com 1.10,2013-02-11 07:59:00,
2013-02-11 04:14:00,75.1,69.0,29.99,NNE,32,4.0,8.0,82,0.00,,,0.00,weatherlink.com 1.10,2013-02-11 08:14:00,
2013-02-11 04:29:00,75.0,70.0,29.99,NE,53,2.0,6.0,83,0.00,,,0.00,weatherlink.com 1.10,2013-02-11 08:29:00,
2013-02-11 04:44:00,74.9,69.0,29.99,East,101,3.0,5.0,83,0.00,,,0.00,weatherlink.com 1.10,2013-02-11 08:44:00,
2013-02-11 04:59:00,74.8,69.0,30.00,East,97,5.0,6.0,83,0.00,,,0.00,weatherlink.com 1.10,2013-02-11 08:59:00,
2013-02-11 05:14:00,74.7,69.0,29.99,NE,55,2.0,4.0,82,0.00,,,0.00,weatherlink.com 1.10,2013-02-11 09:14:00,
2013-02-11 05:30:00,74.3,69.0,30.00,East,100,1.0,2.0,84,0.00,,,0.00,weatherlink.com 1.10,2013-02-11 09:30:00,
2013-02-11 05:44:00,73.9,69.0,30.00,ESE,113,0.0,2.0,85,0.00,,,0.00,weatherlink.com 1.10,2013-02-11 09:44:00,
2013-02-11 05:59:00,73.2,70.0,30.00,SE,136,1.0,2.0,88,0.00,,,0.00,weatherlink.com 1.10,2013-02-11 09:59:00,
2013-02-11 06:14:00,72.8,70.0,30.01,East,100,2.0,5.0,90,0.01,,,0.01,weatherlink.com 1.10,2013-02-11 10:14:00,
2013-02-11 06:29:00,72.6,70.0,30.01,East,90,2.0,4.0,90,0.05,,,0.05,weatherlink.com 1.10,2013-02-11 10:29:00,
2013-02-11 06:44:00,72.4,69.0,30.01,East,97,0.0,2.0,90,0.05,,,0.05,weatherlink.com 1.10,2013-02-11 10:44:00,
2013-02-11 07:14:00,71.4,69.0,30.02,East,98,0.0,0.0,93,0.04,,,0.05,weatherlink.com 1.10,2013-02-11 11:14:00,
2013-02-11 07:29:00,71.7,70.0,30.03,East,98,0.0,1.0,94,0.00,,,0.05,weatherlink.com 1.10,2013-02-11 11:29:00,
2013-02-11 07:44:00,72.1,70.0,30.04,East,91,6.0,9.0,93,0.04,,,0.09,weatherlink.com 1.10,2013-02-11 11:44:00,
2013-02-11 07:59:00,74.5,71.0,30.04,SE,129,0.0,3.0,89,0.04,,,0.09,weatherlink.com 1.10,2013-02-11 11:59:00,
2013-02-11 08:14:00,75.8,72.0,30.04,East,80,1.0,3.0,87,0.04,,,0.09,weatherlink.com 1.10,2013-02-11 12:14:00,
2013-02-11 08:29:00,76.2,72.0,30.04,East,90,1.0,3.0,86,0.04,,,0.09,weatherlink.com 1.10,2013-02-11 12:29:00,
2013-02-11 08:45:00,77.7,73.0,30.05,East,96,2.0,3.0,84,0.00,,,0.09,weatherlink.com 1.10,2013-02-11 12:45:00,
2013-02-11 08:59:00,77.0,72.0,30.05,SE,128,1.0,4.0,84,0.00,,,0.09,weatherlink.com 1.10,2013-02-11 12:59:00,
2013-02-11 09:14:00,77.5,72.0,30.05,East,98,3.0,6.0,82,0.00,,,0.09,weatherlink.com 1.10,2013-02-11 13:14:00,
2013-02-11 09:30:00,78.6,71.0,30.06,NE,43,8.0,11.0,77,0.00,,,0.09,weatherlink.com 1.10,2013-02-11 13:30:00,
2013-02-11 09:44:00,79.6,70.0,30.06,ENE,74,5.0,10.0,73,0.00,,,0.09,weatherlink.com 1.10,2013-02-11 13:44:00,
2013-02-11 10:00:00,79.2,71.0,30.06,ENE,63,10.0,12.0,76,0.00,,,0.09,weatherlink.com 1.10,2013-02-11 14:00:00,
2013-02-11 10:15:00,75.5,72.0,30.07,SE,146,4.0,13.0,88,0.02,,,0.11,weatherlink.com 1.10,2013-02-11 14:15:00,
2013-02-11 10:30:00,75.7,72.0,30.07,East,82,1.0,5.0,89,0.02,,,0.11,weatherlink.com 1.10,2013-02-11 14:30:00,
2013-02-11 10:45:00,77.6,73.0,30.07,East,84,5.0,10.0,86,0.02,,,0.11,weatherlink.com 1.10,2013-02-11 14:45:00,
2013-02-11 11:00:00,79.1,72.0,30.06,SE,129,6.0,12.0,80,0.02,,,0.11,weatherlink.com 1.10,2013-02-11 15:00:00,
2013-02-11 11:15:00,76.2,72.0,30.06,East,98,8.0,13.0,86,0.07,,,0.18,weatherlink.com 1.10,2013-02-11 15:15:00,
2013-02-11 11:45:00,78.8,72.0,30.05,East,90,8.0,14.0,79,0.07,,,0.18,weatherlink.com 1.10,2013-02-11 15:45:00,
2013-02-11 12:00:00,78.7,71.0,30.05,NE,46,4.0,16.0,76,0.07,,,0.18,weatherlink.com 1.10,2013-02-11 16:00:00,
2013-02-11 12:15:00,78.9,72.0,30.05,NE,53,5.0,13.0,78,0.00,,,0.18,weatherlink.com 1.10,2013-02-11 16:15:00,
2013-02-11 12:30:00,77.2,71.0,30.05,East,98,7.0,14.0,80,0.00,,,0.18,weatherlink.com 1.10,2013-02-11 16:30:00,
2013-02-11 12:45:00,78.1,70.0,30.04,NNE,33,7.0,12.0,76,0.00,,,0.18,weatherlink.com 1.10,2013-02-11 16:45:00,
2013-02-11 13:00:00,79.3,71.0,30.03,East,98,4.0,11.0,76,0.00,,,0.18,weatherlink.com 1.10,2013-02-11 17:00:00,
2013-02-11 13:15:00,79.7,72.0,30.03,NE,47,7.0,14.0,76,0.00,,,0.18,weatherlink.com 1.10,2013-02-11 17:15:00,
2013-02-11 13:30:00,79.6,72.0,30.02,NNE,26,5.0,13.0,78,0.00,,,0.18,weatherlink.com 1.10,2013-02-11 17:30:00,
2013-02-11 13:45:00,79.5,71.0,30.02,NE,51,9.0,14.0,76,0.00,,,0.18,weatherlink.com 1.10,2013-02-11 17:45:00,
2013-02-11 14:00:00,79.5,72.0,30.02,NE,44,6.0,13.0,77,0.00,,,0.18,weatherlink.com 1.10,2013-02-11 18:00:00,
2013-02-11 14:15:00,79.1,72.0,30.01,NE,56,9.0,15.0,79,0.00,,,0.18,weatherlink.com 1.10,2013-02-11 18:15:00,
2013-02-11 14:30:00,79.0,70.0,30.01,East,80,14.0,15.0,75,0.00,,,0.18,weatherlink.com 1.10,2013-02-11 18:30:00,
2013-02-11 14:45:00,79.0,70.0,30.00,NE,41,10.0,13.0,75,0.00,,,0.18,weatherlink.com 1.10,2013-02-11 18:45:00,
2013-02-11 15:00:00,78.9,71.0,30.00,ESE,114,6.0,12.0,77,0.00,,,0.18,weatherlink.com 1.10,2013-02-11 19:00:00,
2013-02-11 15:15:00,79.9,72.0,29.99,ENE,73,7.0,13.0,76,0.00,,,0.18,weatherlink.com 1.10,2013-02-11 19:15:00,
2013-02-11 15:30:00,77.7,72.0,29.99,ENE,60,11.0,11.0,83,0.00,,,0.18,weatherlink.com 1.10,2013-02-11 19:30:00,
2013-02-11 15:45:00,77.3,71.0,29.98,ENE,75,7.0,13.0,81,0.00,,,0.18,weatherlink.com 1.10,2013-02-11 19:45:00,
2013-02-11 16:00:00,77.8,72.0,29.99,ENE,75,9.0,17.0,81,0.01,,,0.19,weatherlink.com 1.10,2013-02-11 20:00:00,
2013-02-11 16:15:00,77.2,71.0,29.99,NE,43,3.0,14.0,80,0.01,,,0.19,weatherlink.com 1.10,2013-02-11 20:15:00,
2013-02-11 16:30:00,77.3,71.0,29.99,NNW,347,7.0,16.0,81,0.01,,,0.19,weatherlink.com 1.10,2013-02-11 20:30:00,
2013-02-11 16:45:00,77.1,72.0,29.99,NNE,28,7.0,11.0,83,0.01,,,0.19,weatherlink.com 1.10,2013-02-11 20:45:00,
2013-02-11 17:00:00,76.3,70.0,30.00,NNE,22,8.0,14.0,82,0.00,,,0.19,weatherlink.com 1.10,2013-02-11 21:00:00,
2013-02-11 17:15:00,76.6,70.0,30.00,ENE,61,3.0,9.0,81,0.00,,,0.19,weatherlink.com 1.10,2013-02-11 21:15:00,
2013-02-11 17:30:00,75.9,72.0,30.00,East,83,4.0,11.0,87,0.00,,,0.19,weatherlink.com 1.10,2013-02-11 21:30:00,
2013-02-11 17:45:00,75.3,71.0,30.00,NNE,21,11.0,11.0,86,0.00,,,0.19,weatherlink.com 1.10,2013-02-11 21:45:00,
2013-02-11 18:00:00,74.5,71.0,30.00,NNE,26,6.0,10.0,87,0.02,,,0.21,weatherlink.com 1.10,2013-02-11 22:00:00,
2013-02-11 18:15:00,73.1,70.0,30.00,ENE,78,3.0,6.0,91,0.13,,,0.32,weatherlink.com 1.10,2013-02-11 22:15:00,
2013-02-11 18:30:00,74.1,70.0,30.00,NNE,24,4.0,17.0,87,0.13,,,0.32,weatherlink.com 1.10,2013-02-11 22:30:00,
2013-02-11 18:45:00,74.6,70.0,30.00,NE,48,8.0,12.0,85,0.13,,,0.32,weatherlink.com 1.10,2013-02-11 22:45:00,
2013-02-11 19:00:00,74.8,70.0,30.00,ENE,59,8.0,14.0,85,0.09,,,0.32,weatherlink.com 1.10,2013-02-11 23:00:00,
2013-02-11 19:15:00,75.0,70.0,30.01,East,82,10.0,11.0,83,0.00,,,0.32,weatherlink.com 1.10,2013-02-11 23:15:00,
2013-02-11 19:30:00,75.1,69.0,30.02,ENE,77,9.0,15.0,81,0.00,,,0.32,weatherlink.com 1.10,2013-02-11 23:30:00,
2013-02-11 19:46:00,74.9,69.0,30.02,NNE,25,7.0,11.0,82,0.00,,,0.32,weatherlink.com 1.10,2013-02-11 23:46:00,
2013-02-11 20:00:00,75.0,69.0,30.03,ENE,68,10.0,13.0,81,0.00,,,0.32,weatherlink.com 1.10,2013-02-12 00:00:00,
2013-02-11 20:15:00,75.3,69.0,30.03,ENE,58,3.0,8.0,80,0.00,,,0.32,weatherlink.com 1.10,2013-02-12 00:15:00,
2013-02-11 20:30:00,75.4,68.0,30.04,NNE,27,5.0,11.0,78,0.00,,,0.32,weatherlink.com 1.10,2013-02-12 00:30:00,
2013-02-11 20:45:00,75.5,68.0,30.04,NNE,28,5.0,11.0,78,0.00,,,0.32,weatherlink.com 1.10,2013-02-12 00:45:00,
2013-02-11 21:00:00,75.5,68.0,30.04,NNE,33,5.0,10.0,78,0.00,,,0.32,weatherlink.com 1.10,2013-02-12 01:00:00,
2013-02-11 21:15:00,75.5,67.0,30.04,East,89,7.0,14.0,76,0.00,,,0.32,weatherlink.com 1.10,2013-02-12 01:15:00,
2013-02-11 21:30:00,75.5,67.0,30.05,East,91,6.0,12.0,75,0.00,,,0.32,weatherlink.com 1.10,2013-02-12 01:30:00,
2013-02-11 21:45:00,75.3,68.0,30.05,East,80,2.0,8.0,77,0.00,,,0.32,weatherlink.com 1.10,2013-02-12 01:45:00,
2013-02-11 22:00:00,74.9,67.0,30.05,ENE,60,5.0,8.0,77,0.00,,,0.32,weatherlink.com 1.10,2013-02-12 02:00:00,
2013-02-11 22:16:00,75.0,67.0,30.05,ENE,59,5.0,9.0,75,0.00,,,0.32,weatherlink.com 1.10,2013-02-12 02:16:00,
2013-02-11 22:30:00,74.8,67.0,30.05,ENE,68,1.0,8.0,76,0.00,,,0.32,weatherlink.com 1.10,2013-02-12 02:30:00,
2013-02-11 22:45:00,74.4,66.0,30.05,ENE,65,5.0,6.0,76,0.00,,,0.32,weatherlink.com 1.10,2013-02-12 02:45:00,
2013-02-11 23:00:00,74.4,66.0,30.05,ENE,76,3.0,7.0,76,0.00,,,0.32,weatherlink.com 1.10,2013-02-12 03:00:00,
2013-02-11 23:15:00,74.4,66.0,30.05,NE,41,3.0,9.0,76,0.00,,,0.32,weatherlink.com 1.10,2013-02-12 03:15:00,
2013-02-11 23:30:00,74.3,66.0,30.05,NE,47,3.0,11.0,76,0.00,,,0.32,weatherlink.com 1.10,2013-02-12 03:30:00,
2013-02-11 23:46:00,74.0,66.0,30.05,NNE,23,7.0,7.0,76,0.00,,,0.32,weatherlink.com 1.10,2013-02-12 03:46:00,